createdAt,value
2018-12-12T00:01:57.818Z,5.60
2018-12-12T00:04:47.565Z,5.70
2018-12-12T00:07:18.177Z,5.60
2018-12-12T00:09:49.329Z,5.60
2018-12-12T00:12:20.683Z,5.60
2018-12-12T00:14:51.153Z,5.60
2018-12-12T00:17:42.681Z,5.60
2018-12-12T00:20:20.257Z,5.60
2018-12-12T00:22:50.660Z,5.50
2018-12-12T00:25:21.042Z,5.40
2018-12-12T00:27:51.649Z,5.40
2018-12-12T00:30:26.066Z,5.30
2018-12-12T00:33:00.559Z,5.40
2018-12-12T00:35:32.724Z,5.40
2018-12-12T00:38:03.817Z,5.30
2018-12-12T00:40:41.411Z,5.30
2018-12-12T00:43:32.170Z,5.30
2018-12-12T00:46:03.366Z,5.20
2018-12-12T00:48:33.759Z,5.20
2018-12-12T00:51:07.072Z,5.10
2018-12-12T00:53:44.818Z,5.20
2018-12-12T00:56:15.205Z,5.30
2018-12-12T00:58:45.581Z,5.20
2018-12-12T01:01:16.771Z,5.20
2018-12-12T01:03:53.282Z,5.20
2018-12-12T01:06:24.467Z,5.30
2018-12-12T01:08:54.859Z,5.30
2018-12-12T01:11:44.264Z,5.20
2018-12-12T01:14:14.641Z,5.10
2018-12-12T01:16:45.031Z,5.10
2018-12-12T01:19:19.556Z,4.90
2018-12-12T01:21:56.295Z,5.10
2018-12-12T01:24:27.485Z,5.00
2018-12-12T01:27:17.251Z,5.00
2018-12-12T01:29:47.684Z,5.10
2018-12-12T01:32:22.162Z,5.10
2018-12-12T01:34:54.644Z,4.80
2018-12-12T01:37:25.797Z,5.00
2018-12-12T01:39:56.421Z,5.00
2018-12-12T01:42:27.651Z,4.70
2018-12-12T01:44:57.975Z,4.70
2018-12-12T01:47:28.351Z,4.80
2018-12-12T01:50:01.807Z,4.70
2018-12-12T01:52:32.950Z,4.70
2018-12-12T01:55:03.518Z,4.70
2018-12-12T01:57:33.912Z,4.70
2018-12-12T02:00:05.058Z,4.60
2018-12-12T02:02:36.198Z,4.50
2018-12-12T02:05:07.593Z,4.50
2018-12-12T02:07:37.973Z,4.50
2018-12-12T02:10:09.062Z,4.40
2018-12-12T02:12:39.502Z,4.40
2018-12-12T02:15:31.245Z,4.40
2018-12-12T02:18:01.665Z,4.40
2018-12-12T02:20:51.411Z,4.40
2018-12-12T02:23:21.874Z,4.30
2018-12-12T02:25:55.269Z,4.40
2018-12-12T02:28:47.355Z,4.40
2018-12-12T02:31:17.746Z,4.20
2018-12-12T02:33:48.409Z,4.20
2018-12-12T02:36:19.541Z,4.10
2018-12-12T02:38:50.952Z,4.10
2018-12-12T02:41:27.857Z,4.10
2018-12-12T02:43:58.232Z,4.30
2018-12-12T02:46:28.616Z,4.10
2018-12-12T02:48:59.053Z,4.10
2018-12-12T02:54:11.233Z,4.20
2018-12-12T02:56:48.765Z,4.00
2018-12-12T02:59:19.201Z,3.80
2018-12-12T03:01:50.289Z,4.00
2018-12-12T03:04:20.669Z,4.00
2018-12-12T03:06:51.882Z,4.10
2018-12-12T03:09:22.268Z,4.10
2018-12-12T03:11:52.595Z,3.90
2018-12-12T03:14:23.362Z,3.80
2018-12-12T03:17:14.895Z,4.00
2018-12-12T03:19:45.311Z,4.00
2018-12-12T03:22:33.968Z,3.90
2018-12-12T03:25:04.394Z,3.90
2018-12-12T03:27:34.733Z,3.90
2018-12-12T03:30:05.302Z,3.90
2018-12-12T03:32:36.513Z,4.10
2018-12-12T03:35:06.908Z,4.00
2018-12-12T03:37:38.305Z,4.00
2018-12-12T03:40:08.737Z,4.10
2018-12-12T03:42:39.826Z,3.90
2018-12-12T03:45:10.208Z,3.80
2018-12-12T03:47:41.414Z,4.00
2018-12-12T03:50:14.807Z,4.00
2018-12-12T03:52:49.253Z,4.00
2018-12-12T03:55:19.647Z,3.70
2018-12-12T03:57:54.055Z,3.80
2018-12-12T04:00:24.762Z,3.90
2018-12-12T04:02:55.849Z,4.00
2018-12-12T04:05:30.379Z,4.00
2018-12-12T04:08:00.761Z,4.10
2018-12-12T04:10:31.079Z,4.10
2018-12-12T04:13:02.279Z,3.80
2018-12-12T04:15:54.006Z,3.70
2018-12-12T04:18:24.420Z,3.60
2018-12-12T04:21:02.117Z,3.60
2018-12-12T04:23:38.688Z,3.70
2018-12-12T04:26:16.235Z,3.60
2018-12-12T04:28:47.399Z,3.70
2018-12-12T04:31:17.759Z,3.60
2018-12-12T04:33:50.181Z,3.70
2018-12-12T04:36:21.369Z,3.70
2018-12-12T04:38:51.745Z,3.70
2018-12-12T04:41:22.124Z,3.80
2018-12-12T04:43:52.578Z,3.70
2018-12-12T04:46:22.906Z,3.60
2018-12-12T04:48:53.292Z,3.50
2018-12-12T04:51:23.706Z,3.40
2018-12-12T04:53:54.329Z,3.40
2018-12-12T04:56:25.479Z,3.60
2018-12-12T04:58:56.969Z,3.60
2018-12-12T05:01:48.515Z,3.50
2018-12-12T05:04:19.124Z,3.50
2018-12-12T05:07:08.866Z,3.40
2018-12-12T05:09:39.232Z,3.50
2018-12-12T05:12:28.987Z,3.50
2018-12-12T05:14:59.434Z,3.70
2018-12-12T05:17:50.207Z,3.60
2018-12-12T05:20:20.620Z,3.40
2018-12-12T05:22:51.756Z,3.60
2018-12-12T05:25:22.917Z,3.60
2018-12-12T05:27:53.338Z,3.60
2018-12-12T05:30:23.893Z,3.50
2018-12-12T05:32:54.217Z,3.50
2018-12-12T05:35:24.665Z,3.70
2018-12-12T05:38:14.420Z,3.60
2018-12-12T05:40:44.846Z,3.50
2018-12-12T05:43:15.236Z,3.40
2018-12-12T05:45:45.615Z,3.50
2018-12-12T05:48:18.081Z,3.60
2018-12-12T05:50:48.465Z,3.50
2018-12-12T05:53:18.845Z,3.50
2018-12-12T05:55:50.311Z,3.40
2018-12-12T05:58:23.767Z,3.50
2018-12-12T06:00:54.493Z,3.60
2018-12-12T06:03:25.143Z,3.60
2018-12-12T06:05:55.535Z,3.30
2018-12-12T06:08:25.898Z,3.40
2018-12-12T06:10:56.335Z,3.30
2018-12-12T06:13:26.706Z,3.40
2018-12-12T06:15:57.026Z,3.10
2018-12-12T06:18:27.469Z,3.30
2018-12-12T06:20:57.865Z,3.40
2018-12-12T06:23:47.390Z,3.10
2018-12-12T06:26:17.756Z,3.10
2018-12-12T06:28:49.150Z,3.10
2018-12-12T06:31:19.589Z,3.30
2018-12-12T06:33:49.960Z,3.20
2018-12-12T06:36:26.889Z,3.20
2018-12-12T06:38:58.043Z,3.40
2018-12-12T06:41:29.192Z,3.10
2018-12-12T06:44:00.386Z,3.00
2018-12-12T06:46:52.192Z,3.00
2018-12-12T06:49:22.617Z,2.90
2018-12-12T06:51:53.228Z,3.00
2018-12-12T06:54:24.372Z,3.10
2018-12-12T06:56:56.591Z,3.30
2018-12-12T06:59:48.384Z,3.20
2018-12-12T07:02:19.102Z,3.10
2018-12-12T07:07:33.110Z,2.70
2018-12-12T07:10:25.659Z,2.90
2018-12-12T07:12:56.028Z,2.90
2018-12-12T07:15:27.161Z,2.70
2018-12-12T07:17:57.734Z,2.70
2018-12-12T07:20:28.141Z,2.70
2018-12-12T07:22:59.287Z,3.00
2018-12-12T07:25:29.670Z,2.90
2018-12-12T07:28:00.057Z,2.40
2018-12-12T07:30:30.427Z,2.70
2018-12-12T07:33:01.060Z,3.00
2018-12-12T07:35:32.961Z,4.80
2018-12-12T07:38:04.418Z,3.90
2018-12-12T07:40:34.799Z,3.50
2018-12-12T07:43:05.261Z,3.30
2018-12-12T07:45:35.645Z,3.20
2018-12-12T07:48:06.037Z,3.30
2018-12-12T07:50:36.493Z,3.40
2018-12-12T07:53:06.866Z,3.50
2018-12-12T07:55:38.007Z,3.10
2018-12-12T07:58:09.459Z,3.10
2018-12-12T08:00:40.602Z,2.90
2018-12-12T08:03:11.959Z,2.70
2018-12-12T08:05:43.131Z,2.80
2018-12-12T08:08:13.515Z,2.70
2018-12-12T08:10:43.834Z,2.90
2018-12-12T08:13:14.299Z,2.80
2018-12-12T08:15:44.685Z,2.90
2018-12-12T08:18:15.055Z,3.00
2018-12-12T08:20:45.483Z,3.30
2018-12-12T08:23:15.856Z,2.80
2018-12-12T08:25:46.239Z,2.90
2018-12-12T08:28:16.694Z,3.20
2018-12-12T08:31:08.671Z,2.80
2018-12-12T08:33:41.152Z,2.80
2018-12-12T08:36:12.302Z,2.80
2018-12-12T08:38:42.685Z,2.80
2018-12-12T08:41:13.380Z,2.80
2018-12-12T08:43:43.763Z,3.00
2018-12-12T08:46:14.081Z,3.00
2018-12-12T08:48:44.517Z,2.60
2018-12-12T08:51:14.840Z,2.60
2018-12-12T08:53:45.161Z,2.50
2018-12-12T08:56:15.577Z,2.50
2018-12-12T08:58:45.962Z,2.60
2018-12-12T09:01:16.346Z,2.70
2018-12-12T09:03:46.793Z,2.80
2018-12-12T09:06:18.896Z,2.60
2018-12-12T09:08:51.325Z,2.50
2018-12-12T09:11:21.744Z,2.50
2018-12-12T09:13:52.396Z,2.60
2018-12-12T09:16:23.536Z,2.60
2018-12-12T09:18:54.736Z,2.80
2018-12-12T09:21:26.241Z,2.70
2018-12-12T09:23:57.391Z,2.40
2018-12-12T09:26:30.798Z,2.70
2018-12-12T09:29:01.210Z,2.70
2018-12-12T09:31:32.351Z,2.50
2018-12-12T09:34:03.552Z,2.70
2018-12-12T09:36:33.938Z,2.70
2018-12-12T09:39:05.351Z,2.40
2018-12-12T09:41:35.779Z,2.40
2018-12-12T09:44:06.164Z,2.50
2018-12-12T09:46:38.589Z,2.50
2018-12-12T09:49:10.054Z,2.90
2018-12-12T09:51:41.202Z,3.30
2018-12-12T09:54:12.351Z,3.40
2018-12-12T09:56:42.768Z,3.40
2018-12-12T09:59:13.213Z,3.20
2018-12-12T10:01:43.541Z,3.20
2018-12-12T10:04:14.292Z,3.00
2018-12-12T10:06:44.680Z,3.00
2018-12-12T10:09:15.006Z,3.00
2018-12-12T10:11:46.190Z,3.10
2018-12-12T10:14:18.607Z,3.10
2018-12-12T10:16:48.994Z,3.10
2018-12-12T10:19:19.431Z,3.00
2018-12-12T10:21:51.867Z,2.90
2018-12-12T10:24:22.240Z,3.00
2018-12-12T10:26:52.667Z,2.70
2018-12-12T10:29:23.045Z,3.00
2018-12-12T10:31:53.425Z,3.00
2018-12-12T10:34:23.864Z,3.10
2018-12-12T10:36:54.236Z,2.90
2018-12-12T10:39:24.618Z,3.00
2018-12-12T10:41:55.019Z,2.90
2018-12-12T10:44:25.405Z,3.10
2018-12-12T10:46:56.537Z,3.20
2018-12-12T10:49:28.294Z,3.10
2018-12-12T10:51:58.945Z,3.10
2018-12-12T10:54:29.329Z,3.10
2018-12-12T10:56:59.756Z,3.40
2018-12-12T10:59:30.551Z,3.20
2018-12-12T11:02:18.836Z,3.30
2018-12-12T11:04:49.227Z,3.20
2018-12-12T11:07:20.631Z,3.30
2018-12-12T11:09:51.166Z,3.30
2018-12-12T11:12:21.473Z,3.40
2018-12-12T11:14:51.848Z,3.20
2018-12-12T11:20:06.360Z,3.50
2018-12-12T11:22:36.721Z,3.50
2018-12-12T11:25:07.861Z,3.50
2018-12-12T11:27:38.937Z,3.40
2018-12-12T11:30:09.653Z,3.40
2018-12-12T11:32:40.208Z,3.50
2018-12-12T11:35:11.617Z,5.00
2018-12-12T11:37:46.164Z,5.60
2018-12-12T11:40:22.395Z,4.70
2018-12-12T11:42:55.699Z,4.20
2018-12-12T11:45:26.015Z,4.10
2018-12-12T11:47:56.337Z,3.90
2018-12-12T11:50:26.988Z,4.00
2018-12-12T11:52:58.079Z,4.10
2018-12-12T11:55:34.656Z,4.10
2018-12-12T11:58:04.917Z,4.00
2018-12-12T12:00:35.238Z,4.00
2018-12-12T12:03:05.610Z,4.00
2018-12-12T12:05:35.977Z,4.00
2018-12-12T12:08:06.362Z,4.00
2018-12-12T12:10:36.989Z,4.20
2018-12-12T12:13:07.300Z,4.10
2018-12-12T12:15:37.682Z,4.10
2018-12-12T12:18:08.110Z,4.20
2018-12-12T12:20:38.493Z,4.20
2018-12-12T12:23:08.863Z,4.30
2018-12-12T12:25:39.341Z,4.10
2018-12-12T12:28:09.724Z,4.30
2018-12-12T12:30:40.096Z,4.30
2018-12-12T12:33:10.715Z,4.30
2018-12-12T12:35:41.101Z,4.30
2018-12-12T12:38:11.476Z,4.40
2018-12-12T12:40:42.284Z,4.40
2018-12-12T12:43:12.667Z,4.40
2018-12-12T12:46:02.470Z,4.40
2018-12-12T12:48:33.883Z,4.50
2018-12-12T12:51:04.213Z,4.50
2018-12-12T12:53:34.632Z,4.30
2018-12-12T12:56:05.027Z,4.40
2018-12-12T12:58:35.400Z,4.50
2018-12-12T13:01:06.193Z,4.40
2018-12-12T13:03:36.758Z,4.40
2018-12-12T13:06:07.325Z,4.60
2018-12-12T13:08:37.941Z,4.60
2018-12-12T13:11:14.691Z,4.60
2018-12-12T13:13:38.653Z,4.90
2018-12-12T13:16:09.900Z,5.20
2018-12-12T13:18:41.107Z,4.80
2018-12-12T13:21:12.191Z,4.90
2018-12-12T13:23:42.618Z,4.90
2018-12-12T13:26:12.982Z,4.90
2018-12-12T13:28:43.273Z,4.90
2018-12-12T13:31:13.740Z,4.90
2018-12-12T13:33:44.132Z,4.90
2018-12-12T13:36:14.518Z,4.90
2018-12-12T13:38:44.950Z,4.90
2018-12-12T13:41:15.340Z,4.90
2018-12-12T13:43:45.904Z,4.90
2018-12-12T13:46:16.365Z,4.80
2018-12-12T13:48:46.748Z,4.80
2018-12-12T13:51:17.307Z,4.80
2018-12-12T13:53:48.487Z,4.90
2018-12-12T13:56:18.809Z,4.80
2018-12-12T13:58:49.196Z,4.90
2018-12-12T14:01:21.693Z,4.90
2018-12-12T14:03:52.019Z,4.90
2018-12-12T14:06:23.349Z,5.30
2018-12-12T14:08:54.545Z,5.00
2018-12-12T14:11:29.012Z,5.00
2018-12-12T14:13:59.335Z,4.90
2018-12-12T14:16:29.764Z,4.90
2018-12-12T14:19:00.154Z,4.90
2018-12-12T14:21:30.536Z,4.90
2018-12-12T14:24:00.971Z,4.90
2018-12-12T14:26:31.344Z,4.80
2018-12-12T14:29:01.741Z,4.90
2018-12-12T14:31:32.195Z,4.80
2018-12-12T14:34:03.606Z,4.80
2018-12-12T14:36:33.924Z,4.70
2018-12-12T14:39:05.068Z,4.70
2018-12-12T14:41:36.149Z,4.70
2018-12-12T14:44:25.697Z,4.70
2018-12-12T14:46:56.069Z,4.70
2018-12-12T14:49:26.625Z,4.80
2018-12-12T14:51:57.023Z,5.40
2018-12-12T14:54:27.409Z,4.90
2018-12-12T14:56:57.805Z,4.80
2018-12-12T14:59:29.169Z,4.80
2018-12-12T15:01:59.496Z,4.70
2018-12-12T15:04:35.713Z,4.70
2018-12-12T15:07:01.142Z,4.70
2018-12-12T15:09:31.477Z,4.70
2018-12-12T15:12:01.801Z,4.70
2018-12-12T15:14:32.166Z,4.50
2018-12-12T15:17:02.548Z,4.50
2018-12-12T15:19:32.941Z,4.50
2018-12-12T15:22:04.609Z,4.50
2018-12-12T15:24:35.570Z,4.50
2018-12-12T15:29:48.261Z,4.50
2018-12-12T15:32:22.736Z,4.50
2018-12-12T15:34:54.895Z,4.50
2018-12-12T15:37:25.210Z,4.50
2018-12-12T15:39:55.539Z,4.50
2018-12-12T15:42:26.602Z,4.40
2018-12-12T15:44:56.989Z,4.30
2018-12-12T15:47:27.376Z,4.40
2018-12-12T15:49:57.959Z,4.30
2018-12-12T15:52:28.524Z,4.30
2018-12-12T15:54:59.672Z,4.30
2018-12-12T15:57:31.681Z,4.30
2018-12-12T16:00:03.105Z,4.30
2018-12-12T16:02:33.424Z,4.30
2018-12-12T16:05:03.862Z,4.30
2018-12-12T16:07:34.245Z,4.30
2018-12-12T16:10:04.626Z,4.20
2018-12-12T16:12:35.082Z,4.20
2018-12-12T16:15:05.642Z,4.10
2018-12-12T16:17:35.967Z,4.10
2018-12-12T16:20:06.381Z,4.10
2018-12-12T16:22:36.938Z,4.10
2018-12-12T16:25:07.316Z,4.10
2018-12-12T16:27:37.755Z,4.10
2018-12-12T16:30:08.141Z,4.10
2018-12-12T16:32:39.480Z,4.10
2018-12-12T16:35:09.907Z,4.00
2018-12-12T16:37:40.232Z,4.00
2018-12-12T16:40:10.612Z,4.00
2018-12-12T16:42:41.404Z,4.00
2018-12-12T16:45:12.809Z,4.00
2018-12-12T16:47:43.948Z,4.00
2018-12-12T16:50:14.311Z,4.00
2018-12-12T16:52:44.691Z,3.90
2018-12-12T16:55:15.058Z,3.90
2018-12-12T16:57:46.485Z,3.90
2018-12-12T17:00:17.823Z,3.90
2018-12-12T17:02:48.203Z,3.80
2018-12-12T17:05:18.545Z,3.80
2018-12-12T17:07:56.214Z,3.80
2018-12-12T17:10:26.542Z,3.90
2018-12-12T17:12:57.123Z,3.90
2018-12-12T17:15:27.689Z,3.90
2018-12-12T17:17:58.115Z,3.70
2018-12-12T17:20:28.494Z,3.80
2018-12-12T17:22:58.879Z,3.60
2018-12-12T17:25:29.228Z,3.70
2018-12-12T17:27:59.777Z,4.00
2018-12-12T17:30:30.093Z,3.80
2018-12-12T17:33:00.955Z,3.70
2018-12-12T17:35:31.328Z,3.70
2018-12-12T17:38:01.707Z,3.70
2018-12-12T17:40:32.272Z,3.60
2018-12-12T17:43:02.642Z,3.60
2018-12-12T17:45:33.022Z,3.60
2018-12-12T17:48:03.424Z,3.60
2018-12-12T17:50:33.806Z,3.70
2018-12-12T17:53:07.182Z,3.60
2018-12-12T17:55:38.786Z,3.70
2018-12-12T17:58:09.362Z,3.50
2018-12-12T18:00:39.686Z,4.10
2018-12-12T18:03:11.066Z,3.50
2018-12-12T18:05:48.603Z,3.50
2018-12-12T18:08:19.001Z,3.40
2018-12-12T18:10:49.373Z,3.20
2018-12-12T18:13:19.749Z,3.20
2018-12-12T18:15:50.329Z,3.40
2018-12-12T18:18:21.663Z,3.30
2018-12-12T18:20:54.034Z,3.30
2018-12-12T18:23:24.430Z,3.30
2018-12-12T18:25:54.808Z,3.30
2018-12-12T18:28:25.373Z,3.30
2018-12-12T18:31:02.161Z,3.30
2018-12-12T18:33:34.689Z,3.10
2018-12-12T18:36:05.820Z,3.20
2018-12-12T18:38:37.628Z,3.20
2018-12-12T18:41:11.069Z,3.20
2018-12-12T18:43:41.446Z,3.10
2018-12-12T18:46:11.870Z,3.10
2018-12-12T18:48:42.249Z,3.00
2018-12-12T18:51:12.806Z,3.00
2018-12-12T18:53:43.948Z,2.90
2018-12-12T18:56:14.510Z,2.90
2018-12-12T18:58:46.091Z,2.90
2018-12-12T19:01:16.422Z,2.90
2018-12-12T19:03:46.795Z,2.80
2018-12-12T19:06:17.110Z,2.80
2018-12-12T19:08:48.341Z,2.90
2018-12-12T19:14:02.867Z,2.90
2018-12-12T19:16:36.258Z,2.80
2018-12-12T19:19:06.816Z,2.80
2018-12-12T19:21:39.507Z,2.70
2018-12-12T19:24:11.988Z,2.60
2018-12-12T19:26:42.304Z,2.80
2018-12-12T19:29:13.933Z,2.70
2018-12-12T19:31:44.502Z,2.60
2018-12-12T19:34:15.059Z,2.70
2018-12-12T19:36:46.180Z,2.90
2018-12-12T19:39:16.731Z,2.80
2018-12-12T19:41:48.067Z,2.90
2018-12-12T19:44:19.228Z,2.90
2018-12-12T19:46:49.795Z,2.80
2018-12-12T19:49:25.253Z,2.90
2018-12-12T19:51:55.573Z,2.90
2018-12-12T19:54:44.261Z,2.90
2018-12-12T19:57:14.818Z,2.80
2018-12-12T19:59:45.563Z,2.80
2018-12-12T20:02:16.209Z,3.00
2018-12-12T20:04:48.710Z,2.90
2018-12-12T20:07:19.032Z,2.90
2018-12-12T20:09:50.413Z,2.80
2018-12-12T20:12:20.728Z,3.00
2018-12-12T20:14:51.046Z,3.10
2018-12-12T20:17:21.628Z,3.10
2018-12-12T20:19:52.042Z,2.80
2018-12-12T20:22:22.605Z,2.80
2018-12-12T20:24:59.113Z,2.70
2018-12-12T20:27:29.431Z,2.80
2018-12-12T20:29:59.743Z,2.80
2018-12-12T20:32:30.520Z,2.90
2018-12-12T20:35:01.849Z,2.80
2018-12-12T20:37:33.180Z,2.80
2018-12-12T20:40:03.780Z,2.90
2018-12-12T20:42:34.162Z,2.90
2018-12-12T20:45:04.479Z,2.80
2018-12-12T20:47:34.831Z,2.70
2018-12-12T20:50:05.157Z,2.70
2018-12-12T20:52:36.241Z,2.70
2018-12-12T20:55:12.978Z,2.70
2018-12-12T20:57:43.390Z,2.80
2018-12-12T21:00:14.540Z,2.60
2018-12-12T21:02:45.691Z,2.40
2018-12-12T21:05:16.015Z,2.40
2018-12-12T21:07:47.341Z,2.60
2018-12-12T21:10:17.738Z,2.50
2018-12-12T21:12:48.299Z,2.60
2018-12-12T21:15:18.630Z,2.50
2018-12-12T21:17:49.257Z,2.30
2018-12-12T21:20:19.817Z,2.50
2018-12-12T21:22:50.897Z,2.50
2018-12-12T21:25:40.614Z,2.50
2018-12-12T21:28:10.996Z,2.50
2018-12-12T21:30:43.536Z,2.40
2018-12-12T21:33:14.121Z,2.30
2018-12-12T21:35:44.708Z,2.30
2018-12-12T21:38:15.267Z,2.30
2018-12-12T21:40:53.004Z,2.20
2018-12-12T21:43:23.319Z,2.20
2018-12-12T21:45:53.884Z,2.30
2018-12-12T21:48:24.238Z,2.30
2018-12-12T21:50:55.826Z,2.20
2018-12-12T21:53:26.143Z,2.30
2018-12-12T21:55:56.716Z,2.30
2018-12-12T21:58:27.096Z,2.40
2018-12-12T22:00:57.481Z,2.20
2018-12-12T22:03:28.056Z,2.30
2018-12-12T22:05:58.618Z,2.20
2018-12-12T22:08:29.950Z,2.30
2018-12-12T22:11:00.534Z,2.30
2018-12-12T22:13:30.856Z,2.40
2018-12-12T22:16:01.181Z,2.40
2018-12-12T22:18:31.524Z,2.40
2018-12-12T22:21:08.126Z,2.30
2018-12-12T22:23:38.736Z,2.20
2018-12-12T22:26:09.121Z,2.10
2018-12-12T22:28:39.444Z,2.10
2018-12-12T22:31:10.786Z,2.20
2018-12-12T22:33:41.100Z,2.10
2018-12-12T22:36:14.226Z,2.00
2018-12-12T22:38:43.135Z,2.10
2018-12-12T22:41:15.495Z,2.30
2018-12-12T22:43:46.060Z,2.30
2018-12-12T22:46:16.487Z,2.10
2018-12-12T22:48:46.856Z,2.20
2018-12-12T22:51:17.232Z,2.00
2018-12-12T22:53:47.668Z,2.20
2018-12-12T22:56:18.041Z,2.10
2018-12-12T22:58:49.198Z,2.20
2018-12-12T23:01:25.528Z,2.20
2018-12-12T23:03:55.865Z,2.20
2018-12-12T23:06:26.236Z,2.40
2018-12-12T23:08:56.825Z,2.20
2018-12-12T23:11:28.291Z,2.40
2018-12-12T23:13:58.854Z,2.40
2018-12-12T23:16:33.340Z,2.30
2018-12-12T23:19:03.725Z,2.20
2018-12-12T23:21:34.045Z,2.20
2018-12-12T23:24:04.674Z,2.20
2018-12-12T23:26:35.239Z,2.20
2018-12-12T23:29:06.601Z,2.00
2018-12-12T23:31:37.334Z,1.90
2018-12-12T23:36:52.239Z,2.00
2018-12-12T23:39:22.612Z,2.00
2018-12-12T23:41:52.921Z,2.10
2018-12-12T23:44:23.360Z,2.00
2018-12-12T23:46:53.740Z,1.90
2018-12-12T23:49:24.115Z,1.90
2018-12-12T23:51:54.544Z,1.70
2018-12-12T23:54:24.946Z,1.70
2018-12-12T23:56:57.356Z,1.90
2018-12-12T23:59:30.186Z,1.80
